Augusta, Arkansas
Current Conditions -  °F | °C
As of 1:56 AM on Friday 19 Dec 2014 (Local Time) from KSRC Reporting Station
Haze Haze  
Wind Chill: 35°   Ceiling: 3700
Heat Index: 40°   Visibility: 5mi
Dew Point: 38°   Wind: 7mph
Humidity: 93%   Direction: 20°NNE
Pressure: 30.23"   Gusts: NA
Location:  35.28°N, 91.37°W
Report Text: KSRC 190756Z AUTO 02006KT 5SM BR OVC037 04/03 A3023 RMK AO2 SLP244 T00440033 TSNO
Loading
Personal Weather Stations






























Interactive Weather Map New forecast layout! Learn more

10-Day Weather Forecast

Advertisements
Track Severe Weather on mobile